Time;durP1;ratioP1;P1;durP2;ratioP2;P2;SDS_P1;SDS_P2;PMS_P1;PMS_P2;Temp;Humidity;BMP_temperature;BMP_pressure;BME280_temperature;BME280_humidity;BME280_pressure;Samples;Min_cycle;Max_cycle;Signal;HPM_P1;HPM_P2
2023/08/31 00:00:13;;;;;;;;;3.67;2.00;;;;;20.22;48.53;101029.38;2035214;27;2753405;-75
2023/08/31 00:01:23;;;;;;;;;4.00;2.00;;;;;20.24;48.39;101040.81;2035266;27;2750313;-76
2023/08/31 00:02:34;;;;;;;;;5.00;3.00;;;;;20.27;48.27;101045.09;2060188;27;2736725;-76
2023/08/31 00:03:47;;;;;;;;;2.50;2.17;;;;;20.29;48.60;101048.50;2037619;27;2735712;-77
2023/08/31 00:05:01;;;;;;;;;4.00;4.00;;;;;20.31;48.14;101045.72;2036867;27;2736746;-77
2023/08/31 00:06:14;;;;;;;;;2.17;2.17;;;;;20.30;48.32;101047.53;2035584;27;2734664;-77
2023/08/31 00:07:24;;;;;;;;;4.00;3.00;;;;;20.29;48.12;101044.97;2010440;27;2752548;-77
2023/08/31 00:08:36;;;;;;;;;4.33;3.00;;;;;20.25;48.15;101046.97;2043387;27;2744026;-77
2023/08/31 00:09:46;;;;;;;;;5.00;4.00;;;;;20.23;48.32;101047.09;2041021;27;2750296;-78
2023/08/31 00:11:00;;;;;;;;;1.75;1.75;;;;;20.23;48.51;101043.56;2051806;27;2741932;-77
2023/08/31 00:12:10;;;;;;;;;5.00;4.00;;;;;20.19;47.62;101042.94;2026272;27;2748277;-78
2023/08/31 00:13:21;;;;;;;;;5.00;3.33;;;;;20.17;47.82;101052.88;2030730;27;2750288;-77
2023/08/31 00:14:33;;;;;;;;;3.50;3.00;;;;;20.15;48.04;101051.28;2050760;27;2739924;-77
2023/08/31 00:15:46;;;;;;;;;4.50;3.00;;;;;20.15;48.59;101051.28;2059825;27;2744054;-77
2023/08/31 00:16:59;;;;;;;;;3.67;2.67;;;;;20.13;48.65;101054.88;2030853;27;2750712;-77
2023/08/31 00:18:10;;;;;;;;;5.67;3.00;;;;;20.10;48.76;101054.22;2001421;27;2754536;-76
2023/08/31 00:19:21;;;;;;;;;7.33;3.00;;;;;20.07;48.38;101059.78;2026589;28;2746147;-76
2023/08/31 00:20:33;;;;;;;;;2.00;2.00;;;;;20.04;48.57;101062.63;2045989;27;2744043;-80
2023/08/31 00:21:46;;;;;;;;;5.00;2.83;;;;;20.00;48.82;101064.69;2054193;27;2735721;-80
2023/08/31 00:23:00;;;;;;;;;3.00;3.00;;;;;20.00;48.73;101068.19;2034961;27;2732565;-75
2023/08/31 00:24:10;;;;;;;;;3.00;3.00;;;;;20.00;48.55;101064.69;2002702;27;3445053;-75
2023/08/31 00:25:23;;;;;;;;;3.60;3.60;;;;;19.98;48.54;101059.44;2059471;27;2751333;-75
2023/08/31 00:26:43;;;;;;;;;3.00;2.67;;;;;19.95;48.71;101062.28;2060966;27;2746142;-75
2023/08/31 00:27:57;;;;;;;;;3.83;3.00;;;;;19.96;48.70;101056.03;2036808;27;2746148;-75
2023/08/31 00:29:10;;;;;;;;;3.33;3.33;;;;;19.96;48.71;101050.69;2036184;27;2739931;-75
2023/08/31 00:30:28;;;;;;;;;5.17;4.00;;;;;19.97;48.96;101057.75;2037288;27;2741960;-75
2023/08/31 00:31:43;;;;;;;;;2.00;2.00;;;;;19.95;48.88;101059.63;2028752;28;2741932;-75
2023/08/31 00:32:54;;;;;;;;;6.33;2.33;;;;;19.91;49.13;101063.47;2006859;27;2754488;-75
2023/08/31 00:34:06;;;;;;;;;4.33;3.00;;;;;19.88;49.26;101061.00;2058596;27;2735747;-75
2023/08/31 00:35:20;;;;;;;;;5.50;2.67;;;;;19.89;49.06;101055.59;2028714;28;2754435;-76
2023/08/31 00:36:33;;;;;;;;;3.00;3.00;;;;;19.93;48.99;101055.38;2009225;27;3461199;-75
2023/08/31 00:37:43;;;;;;;;;2.33;2.33;;;;;19.93;48.83;101056.22;2035189;27;2748571;-75
2023/08/31 00:38:54;;;;;;;;;5.00;3.00;;;;;19.90;49.04;101049.28;2049566;27;2754562;-75
2023/08/31 00:40:07;;;;;;;;;6.00;3.00;;;;;19.90;49.15;101051.94;2039405;28;2744027;-75
2023/08/31 00:41:22;;;;;;;;;4.17;3.00;;;;;19.87;49.38;101048.66;2052346;27;2746123;-75
2023/08/31 00:42:32;;;;;;;;;3.00;3.00;;;;;19.83;49.41;101044.50;2003639;27;2737804;-74
2023/08/31 00:43:43;;;;;;;;;3.00;3.00;;;;;19.79;49.01;101042.03;2043735;27;3465896;-75
2023/08/31 00:44:54;;;;;;;;;2.67;2.67;;;;;19.77;49.33;101035.09;2045328;27;2746118;-75
2023/08/31 00:46:06;;;;;;;;;3.00;3.00;;;;;19.77;49.85;101032.41;2061104;27;2723568;-74
2023/08/31 00:47:19;;;;;;;;;4.00;2.67;;;;;19.85;49.20;101038.06;2061302;27;2733610;-73
2023/08/31 00:48:33;;;;;;;;;4.00;3.50;;;;;19.91;49.57;101036.81;2036943;27;2737772;-73
2023/08/31 00:49:47;;;;;;;;;4.50;2.17;;;;;19.98;49.64;101037.22;2038040;27;2743035;-73
2023/08/31 00:51:01;;;;;;;;;3.00;3.00;;;;;20.04;49.72;101041.31;2037885;27;2743003;-73
2023/08/31 00:52:14;;;;;;;;;2.17;2.17;;;;;20.13;49.26;101041.56;2037150;27;2729460;-73
2023/08/31 00:53:29;;;;;;;;;3.67;2.50;;;;;20.19;48.86;101045.63;2031064;27;2730478;-73
2023/08/31 00:54:42;;;;;;;;;7.00;5.00;;;;;20.21;48.69;101046.34;2029419;27;2746114;-73
2023/08/31 00:55:53;;;;;;;;;5.00;3.00;;;;;20.22;49.14;101044.56;2003489;27;2739876;-74
2023/08/31 00:57:04;;;;;;;;;5.00;4.00;;;;;20.23;48.74;101044.44;2042351;27;2752384;-73
2023/08/31 00:58:15;;;;;;;;;2.67;2.00;;;;;20.22;49.20;101040.03;2040309;28;2750285;-73
2023/08/31 00:59:26;;;;;;;;;7.33;4.00;;;;;20.19;48.75;101036.75;2038040;27;2747160;-73
2023/08/31 01:01:03;;;;;;;;;4.33;4.33;;;;;20.14;48.78;101042.41;2026080;27;2754540;-73
2023/08/31 01:02:27;;;;;;;;;5.00;3.17;;;;;20.08;48.67;101037.44;2052575;27;2737243;-73
2023/08/31 01:03:57;;;;;;;;;7.00;4.00;;;;;19.99;48.66;101034.47;2001236;27;3460680;-73
2023/08/31 01:05:38;;;;;;;;;3.00;3.00;;;;;19.95;48.86;101037.47;2024108;27;2741014;-74
2023/08/31 01:07:23;;;;;;;;;5.00;5.00;;;;;19.86;49.16;101036.25;2025546;27;3461710;-74
2023/08/31 01:09:07;;;;;;;;;3.00;3.00;;;;;19.81;49.18;101041.03;2060924;27;2735729;-75
2023/08/31 01:10:29;;;;;;;;;3.00;3.00;;;;;19.74;49.32;101036.16;2011365;27;2742439;-74
2023/08/31 01:11:55;;;;;;;;;4.00;3.33;;;;;19.69;49.64;101038.25;2061146;27;2733610;-76
2023/08/31 01:13:13;;;;;;;;;4.50;3.17;;;;;19.62;49.76;101037.81;2033960;27;2744396;-76
2023/08/31 01:14:34;;;;;;;;;2.00;1.67;;;;;19.59;49.73;101038.03;2029336;27;2733669;-76
2023/08/31 01:15:47;;;;;;;;;3.00;3.00;;;;;19.55;49.77;101034.72;2008629;27;3470056;-76
2023/08/31 01:16:59;;;;;;;;;5.33;3.00;;;;;19.51;49.80;101035.88;2034509;27;2754492;-75
2023/08/31 01:18:17;;;;;;;;;5.67;4.17;;;;;19.47;50.10;101039.69;2059155;27;2747206;-76
2023/08/31 01:19:43;;;;;;;;;4.83;3.17;;;;;19.44;50.13;101035.44;2028808;27;2743028;-76
2023/08/31 01:21:13;;;;;;;;;5.00;4.00;;;;;19.48;50.23;101040.56;2001912;27;2752459;-76
2023/08/31 01:22:32;;;;;;;;;4.50;2.67;;;;;19.52;50.12;101042.91;2052060;27;2744034;-80
2023/08/31 01:23:51;;;;;;;;;6.67;4.00;;;;;19.54;50.16;101040.13;2003226;27;2741962;-80
2023/08/31 01:25:04;;;;;;;;;4.33;4.00;;;;;19.55;50.19;101047.19;2032469;27;2752480;-80
2023/08/31 01:26:14;;;;;;;;;6.00;3.67;;;;;19.53;49.70;101046.44;2036221;27;2746142;-80
2023/08/31 01:27:26;;;;;;;;;6.67;4.00;;;;;19.49;50.52;101056.44;2042593;27;2754509;-80
2023/08/31 01:28:38;;;;;;;;;5.67;3.33;;;;;19.45;49.93;101049.63;2028668;27;2748181;-80
2023/08/31 01:29:54;;;;;;;;;4.33;3.67;;;;;19.40;50.15;101054.38;2058272;27;2748197;-80
2023/08/31 01:31:05;;;;;;;;;3.00;3.00;;;;;19.34;50.44;101059.16;2012349;27;2749271;-80
2023/08/31 01:32:16;;;;;;;;;5.00;4.00;;;;;19.32;50.50;101061.06;2036293;27;2751314;-80
2023/08/31 01:33:27;;;;;;;;;4.00;4.00;;;;;19.28;50.56;101056.91;2045491;27;2752457;-80
2023/08/31 01:34:38;;;;;;;;;3.67;3.67;;;;;19.25;50.98;101064.25;2045827;28;2744024;-79
2023/08/31 01:35:54;;;;;;;;;5.67;3.00;;;;;19.22;51.38;101057.28;1999204;28;2736728;-81
2023/08/31 01:37:20;;;;;;;;;4.00;4.00;;;;;19.19;50.74;101057.50;2028358;28;2741996;-81
2023/08/31 01:38:37;;;;;;;;;3.67;2.83;;;;;19.21;51.30;101056.44;2045644;28;2744015;-80
2023/08/31 01:40:01;;;;;;;;;3.33;2.33;;;;;19.29;50.50;101050.63;2028123;28;2753413;-80
2023/08/31 01:41:17;;;;;;;;;4.67;3.67;;;;;19.36;50.65;101052.88;2004448;28;2750591;-80
2023/08/31 01:42:28;;;;;;;;;5.33;3.00;;;;;19.38;50.63;101048.31;2019059;28;2750262;-80
2023/08/31 01:43:40;;;;;;;;;3.00;2.00;;;;;19.35;50.76;101049.38;2019167;28;2744126;-80
2023/08/31 01:44:51;;;;;;;;;4.00;4.00;;;;;19.32;51.00;101044.22;2019167;28;2750305;-80
2023/08/31 01:46:02;;;;;;;;;7.00;3.33;;;;;19.30;50.84;101047.00;2016693;28;2752446;-80
2023/08/31 01:47:13;;;;;;;;;4.00;3.00;;;;;19.27;51.12;101044.53;2022265;28;2746151;-79
2023/08/31 01:48:25;;;;;;;;;3.00;3.00;;;;;19.26;50.25;101045.47;2053835;28;2754504;-80
2023/08/31 01:49:36;;;;;;;;;9.33;4.00;;;;;19.26;50.12;101053.47;2026961;28;2757604;-80
2023/08/31 01:50:47;;;;;;;;;3.00;3.00;;;;;19.23;50.33;101049.22;2023011;28;2745050;-80
2023/08/31 01:51:58;;;;;;;;;2.67;2.00;;;;;19.23;50.72;101048.38;2036454;28;2748213;-79
2023/08/31 01:53:12;;;;;;;;;2.67;2.67;;;;;19.22;50.62;101052.84;2045844;28;2740917;-80
2023/08/31 01:54:22;;;;;;;;;3.67;3.00;;;;;19.21;50.78;101056.44;2004027;28;2754918;-80
2023/08/31 01:55:34;;;;;;;;;3.00;3.00;;;;;19.22;50.75;101057.28;2040108;28;2735721;-79
2023/08/31 01:56:47;;;;;;;;;3.17;3.17;;;;;19.25;50.27;101057.09;2014829;28;2739873;-80
2023/08/31 01:58:00;;;;;;;;;2.00;2.00;;;;;19.27;50.44;101054.34;2021938;28;2739276;-79
2023/08/31 01:59:11;;;;;;;;;3.67;2.33;;;;;19.29;50.57;101049.75;1995881;28;2754521;-80
2023/08/31 02:00:22;;;;;;;;;4.33;3.67;;;;;19.30;51.10;101049.66;2035573;28;2752474;-80
2023/08/31 02:01:33;;;;;;;;;3.33;3.33;;;;;19.30;50.84;101052.34;2029766;28;2745167;-80
2023/08/31 02:02:44;;;;;;;;;5.33;4.00;;;;;19.27;50.40;101052.53;2027107;28;2749270;-80
2023/08/31 02:03:55;;;;;;;;;3.00;3.00;;;;;19.24;51.03;101050.06;2030909;28;3453932;-80
2023/08/31 02:05:07;;;;;;;;;3.00;3.00;;;;;19.23;50.61;101051.03;2043401;28;2741940;-81
2023/08/31 02:06:17;;;;;;;;;2.00;2.00;;;;;19.20;51.34;101043.22;1995676;28;3463779;-80
2023/08/31 02:07:28;;;;;;;;;2.67;2.67;;;;;19.20;51.02;101043.22;2043302;28;2738810;-80
2023/08/31 02:08:43;;;;;;;;;4.83;2.50;;;;;19.21;51.00;101040.44;2021795;28;2739864;-79
2023/08/31 02:09:54;;;;;;;;;6.00;3.00;;;;;19.22;51.02;101047.50;2001873;28;2741997;-80
2023/08/31 02:11:05;;;;;;;;;4.00;3.00;;;;;19.27;51.49;101044.53;2043692;28;2749286;-80
2023/08/31 02:12:15;;;;;;;;;3.00;1.67;;;;;19.33;50.67;101049.44;1995415;28;2749333;-80
2023/08/31 02:13:28;;;;;;;;;1.00;1.00;;;;;19.37;50.50;101049.25;2045928;28;2720066;-81
2023/08/31 02:14:41;;;;;;;;;4.67;3.00;;;;;19.38;50.71;101051.84;2030342;28;2742974;-81
2023/08/31 02:15:52;;;;;;;;;5.00;2.33;;;;;19.39;51.44;101044.66;1990435;28;2754443;-80
2023/08/31 02:17:03;;;;;;;;;2.67;2.67;;;;;19.42;51.09;101036.47;2012052;28;2742018;-81
2023/08/31 02:18:14;;;;;;;;;4.33;3.00;;;;;19.49;51.37;101047.59;2036633;28;2746122;-80
2023/08/31 02:19:25;;;;;;;;;3.33;3.33;;;;;19.57;50.58;101047.94;2034298;28;2743072;-80
2023/08/31 02:20:38;;;;;;;;;5.83;3.00;;;;;19.58;50.29;101046.13;2052612;28;2737802;-79
2023/08/31 02:21:52;;;;;;;;;2.83;2.83;;;;;19.55;50.47;101045.38;2021514;28;2746122;-79
2023/08/31 02:23:05;;;;;;;;;4.33;3.33;;;;;19.55;50.49;101042.72;2022603;28;2737812;-80
2023/08/31 02:24:18;;;;;;;;;4.17;2.33;;;;;19.56;50.34;101041.75;2022227;28;2721143;-80
2023/08/31 02:25:28;;;;;;;;;4.00;3.00;;;;;19.55;50.82;101049.84;1996605;28;2752769;-80
2023/08/31 02:26:40;;;;;;;;;4.33;3.00;;;;;19.53;50.52;101046.44;2044456;28;2732563;-79
2023/08/31 02:27:50;;;;;;;;;4.33;2.67;;;;;19.51;50.80;101043.88;1988773;28;2746122;-80
2023/08/31 02:29:01;;;;;;;;;5.67;4.00;;;;;19.51;50.64;101043.88;2028490;28;2749283;-79
2023/08/31 02:30:12;;;;;;;;;7.33;3.00;;;;;19.48;49.94;101046.75;2039500;28;2753515;-79
2023/08/31 02:31:23;;;;;;;;;5.67;3.33;;;;;19.45;50.20;101039.81;2020640;28;2738901;-80
2023/08/31 02:32:34;;;;;;;;;3.00;3.00;;;;;19.44;51.36;101040.75;2017520;28;2749255;-80
2023/08/31 02:33:49;;;;;;;;;4.25;3.00;;;;;19.50;50.84;101036.84;2038244;28;2739857;-80
2023/08/31 02:35:00;;;;;;;;;4.67;3.00;;;;;19.56;50.91;101043.56;2027671;27;2735713;-80
2023/08/31 02:36:11;;;;;;;;;3.00;3.00;;;;;19.62;51.00;101043.16;2059417;27;2736731;-80
2023/08/31 02:37:22;;;;;;;;;5.33;3.00;;;;;19.70;50.57;101044.47;2035034;27;2743466;-80
2023/08/31 02:38:33;;;;;;;;;2.00;2.00;;;;;19.76;50.97;101039.56;2051950;27;3466941;-80
2023/08/31 02:39:45;;;;;;;;;3.75;3.75;;;;;19.86;50.47;101038.94;2052004;27;2749259;-79
2023/08/31 02:40:58;;;;;;;;;2.17;2.00;;;;;19.90;50.72;101037.78;2051771;27;2744535;-79
2023/08/31 02:42:11;;;;;;;;;4.33;4.33;;;;;19.96;50.51;101044.50;2032919;27;2736766;-80
2023/08/31 02:43:25;;;;;;;;;6.17;4.17;;;;;19.94;50.18;101044.59;2028640;28;2750280;-80
2023/08/31 02:44:35;;;;;;;;;4.00;4.00;;;;;19.91;49.92;101047.47;2011603;27;2753430;-80
2023/08/31 02:45:46;;;;;;;;;3.33;3.00;;;;;19.85;49.72;101053.25;2068148;27;2737774;-81
2023/08/31 02:46:57;;;;;;;;;5.00;4.00;;;;;19.77;50.31;101051.94;2017464;27;2750377;-80
2023/08/31 02:48:10;;;;;;;;;7.00;4.67;;;;;19.71;49.92;101047.00;2050384;27;2751408;-80
2023/08/31 02:49:20;;;;;;;;;5.00;3.33;;;;;19.66;50.43;101054.47;2034560;27;2753473;-80
2023/08/31 02:50:31;;;;;;;;;4.00;3.00;;;;;19.63;50.60;101052.03;2059348;27;2736727;-80
2023/08/31 02:51:45;;;;;;;;;3.50;2.67;;;;;19.63;50.62;101049.34;2036236;27;2732570;-82
2023/08/31 02:52:58;;;;;;;;;3.50;2.67;;;;;19.66;50.95;101049.13;2029060;28;2747177;-81
2023/08/31 02:54:11;;;;;;;;;3.50;3.50;;;;;19.74;51.24;101048.63;2028411;27;2745143;-81
2023/08/31 02:55:21;;;;;;;;;2.00;2.00;;;;;19.82;50.73;101053.44;2003174;27;2741939;-81
2023/08/31 02:56:32;;;;;;;;;4.33;3.33;;;;;19.89;50.22;101054.72;2040649;27;2749267;-82
2023/08/31 02:57:43;;;;;;;;;3.00;3.00;;;;;19.93;50.03;101055.38;2041141;28;2737795;-82
2023/08/31 02:58:54;;;;;;;;;4.00;4.00;;;;;19.92;50.62;101049.19;2040998;27;2754477;-82
2023/08/31 03:00:10;;;;;;;;;3.50;2.75;;;;;19.95;50.49;101054.28;2056404;27;2738140;-82
2023/08/31 03:01:23;;;;;;;;;2.33;2.00;;;;;19.98;50.26;101050.56;2032696;27;2747152;-82
2023/08/31 03:02:34;;;;;;;;;4.67;3.00;;;;;19.99;50.40;101049.63;2032240;27;2750332;-81
2023/08/31 03:03:47;;;;;;;;;3.67;3.67;;;;;19.97;49.87;101049.75;2061129;27;2746134;-81
2023/08/31 03:04:57;;;;;;;;;5.67;5.00;;;;;19.94;50.05;101051.75;2035404;27;2742991;-81
2023/08/31 03:06:09;;;;;;;;;3.33;2.00;;;;;19.92;50.87;101051.88;2051850;27;3456545;-80
2023/08/31 03:07:20;;;;;;;;;6.67;4.00;;;;;19.93;49.77;101050.06;2035731;27;2737760;-80
2023/08/31 03:08:31;;;;;;;;;7.00;4.00;;;;;19.93;50.16;101052.72;2045242;27;2742983;-80
2023/08/31 03:09:41;;;;;;;;;7.00;6.00;;;;;19.91;49.76;101055.47;2037628;27;3455446;-80
2023/08/31 03:10:55;;;;;;;;;10.25;5.75;;;;;19.88;49.68;101055.66;2054730;27;1829417;-80
2023/08/31 03:12:08;;;;;;;;;3.00;3.00;;;;;19.87;50.33;101046.84;2053238;28;2736193;-81
2023/08/31 03:13:18;;;;;;;;;9.33;5.67;;;;;19.89;49.69;101046.72;2002843;28;2745160;-80
2023/08/31 03:14:29;;;;;;;;;6.33;6.33;;;;;19.89;49.86;101044.06;2042651;28;2746208;-81
2023/08/31 03:15:41;;;;;;;;;5.00;3.00;;;;;19.90;50.70;101046.59;2052260;27;2741952;-81
2023/08/31 03:16:51;;;;;;;;;3.33;3.33;;;;;19.95;50.34;101046.28;2027256;27;2745085;-81
2023/08/31 03:18:03;;;;;;;;;6.67;6.67;;;;;20.00;50.32;101043.34;2051665;27;2737790;-81
2023/08/31 03:19:13;;;;;;;;;5.33;4.67;;;;;20.06;49.63;101039.38;2027375;27;2745177;-81
2023/08/31 03:20:24;;;;;;;;;6.00;6.00;;;;;20.08;49.96;101040.13;2046998;27;2733643;-82
2023/08/31 03:21:35;;;;;;;;;6.00;4.00;;;;;20.07;50.03;101038.44;2048502;27;2754543;-82
2023/08/31 03:22:46;;;;;;;;;11.67;6.00;;;;;20.05;50.21;101046.53;2063963;27;1841920;-82
2023/08/31 03:23:57;;;;;;;;;9.00;6.00;;;;;20.05;49.67;101032.34;2037206;27;2745069;-82
2023/08/31 03:25:11;;;;;;;;;5.00;4.83;;;;;20.00;50.10;101035.34;2037965;27;2740911;-77
2023/08/31 03:26:21;;;;;;;;;5.67;5.33;;;;;20.00;50.33;101030.84;2010383;27;3460668;-77
2023/08/31 03:27:32;;;;;;;;;6.00;5.00;;;;;20.05;50.32;101032.34;2051616;27;2742989;-81
2023/08/31 03:28:43;;;;;;;;;5.67;5.67;;;;;20.08;49.53;101032.13;2048332;27;3448177;-81
2023/08/31 03:29:54;;;;;;;;;7.67;6.00;;;;;20.06;49.16;101029.56;2040189;27;2744039;-81
2023/08/31 03:31:05;;;;;;;;;6.00;5.33;;;;;20.01;49.79;101039.69;2042455;27;2752855;-82
2023/08/31 03:32:15;;;;;;;;;7.00;4.00;;;;;19.97;50.49;101039.06;2029937;27;2746206;-81
2023/08/31 03:33:28;;;;;;;;;5.67;4.00;;;;;19.97;50.17;101040.88;2045834;27;2747195;-81
2023/08/31 03:34:39;;;;;;;;;4.33;3.67;;;;;19.99;50.39;101036.28;2034520;27;2749278;-81
2023/08/31 03:35:50;;;;;;;;;5.00;4.00;;;;;20.04;50.28;101033.28;2049285;27;2747561;-81
2023/08/31 03:37:01;;;;;;;;;6.00;4.67;;;;;20.07;49.68;101033.09;2045253;27;2749255;-81
2023/08/31 03:38:12;;;;;;;;;8.33;5.00;;;;;20.05;50.29;101029.69;2033191;27;3456958;-81
2023/08/31 03:39:22;;;;;;;;;5.00;5.00;;;;;20.02;50.08;101033.41;2049798;27;2750307;-82
2023/08/31 03:40:33;;;;;;;;;9.67;6.00;;;;;20.00;50.20;101030.00;2046031;27;2749326;-82
2023/08/31 03:41:44;;;;;;;;;7.00;3.00;;;;;19.97;50.32;101039.06;2033858;27;2750925;-82
2023/08/31 03:42:55;;;;;;;;;6.00;5.00;;;;;19.95;50.18;101040.13;2036800;28;3455477;-82
2023/08/31 03:44:06;;;;;;;;;5.00;3.67;;;;;19.94;50.22;101033.94;2037476;28;2743012;-82
2023/08/31 03:45:18;;;;;;;;;7.33;5.67;;;;;19.92;50.01;101027.84;2038983;27;2739973;-82
2023/08/31 03:46:31;;;;;;;;;5.33;5.33;;;;;19.93;50.23;101028.72;2061582;27;2734645;-82
2023/08/31 03:47:42;;;;;;;;;5.00;5.00;;;;;19.91;50.42;101031.47;2004562;27;3456495;-82
2023/08/31 03:48:53;;;;;;;;;6.00;4.67;;;;;19.86;50.26;101026.44;2041681;27;2748271;-78
2023/08/31 03:50:04;;;;;;;;;6.00;4.67;;;;;19.83;50.05;101034.66;2043887;27;2748270;-78
2023/08/31 03:51:18;;;;;;;;;6.83;6.00;;;;;19.79;50.21;101035.84;2054251;27;2741957;-78
2023/08/31 03:52:28;;;;;;;;;6.00;3.67;;;;;19.79;50.68;101030.50;2001791;28;2748278;-78
2023/08/31 03:53:39;;;;;;;;;4.00;4.00;;;;;19.81;51.03;101036.56;2040035;28;2752432;-78
2023/08/31 03:54:52;;;;;;;;;3.67;3.67;;;;;19.85;51.09;101029.22;2036241;28;2752367;-78
2023/08/31 03:56:04;;;;;;;;;4.00;4.00;;;;;19.91;50.47;101031.47;2027175;28;2754427;-80
2023/08/31 03:57:14;;;;;;;;;3.67;3.67;;;;;19.96;50.46;101032.00;2026608;27;2749806;-80
2023/08/31 03:58:25;;;;;;;;;4.00;4.00;;;;;19.99;50.76;101028.28;2043805;27;2750289;-80
2023/08/31 03:59:37;;;;;;;;;3.25;3.25;;;;;20.00;50.72;101036.16;2051749;27;2745073;-78
2023/08/31 04:00:51;;;;;;;;;6.00;5.00;;;;;20.02;50.78;101034.28;2027094;27;2746111;-78
2023/08/31 04:02:01;;;;;;;;;5.00;4.33;;;;;20.06;50.84;101039.38;2026429;27;2743104;-78
2023/08/31 04:03:12;;;;;;;;;6.67;6.00;;;;;20.10;50.46;101040.91;2059693;27;2740898;-78
2023/08/31 04:04:23;;;;;;;;;6.00;3.67;;;;;20.06;50.35;101034.03;2034919;27;2748252;-78
2023/08/31 04:05:34;;;;;;;;;4.67;4.67;;;;;20.02;50.40;101028.06;2058558;27;2746131;-78
2023/08/31 04:06:47;;;;;;;;;4.17;4.17;;;;;20.05;50.71;101033.19;2028297;28;2745086;-78
2023/08/31 04:07:58;;;;;;;;;5.33;5.00;;;;;20.11;50.60;101029.28;2002461;28;2742982;-77
2023/08/31 04:09:09;;;;;;;;;3.33;3.00;;;;;20.17;50.47;101030.69;2043127;27;2750289;-77
2023/08/31 04:10:20;;;;;;;;;5.00;4.67;;;;;20.22;50.20;101034.72;2047667;27;2745108;-79
2023/08/31 04:11:31;;;;;;;;;6.33;4.33;;;;;20.25;50.05;101038.97;2041009;27;2746216;-80
2023/08/31 04:12:42;;;;;;;;;4.00;3.67;;;;;20.27;49.85;101036.22;2040599;28;2754518;-80
2023/08/31 04:13:53;;;;;;;;;4.00;3.00;;;;;20.23;49.96;101033.75;2026863;28;2750267;-77
2023/08/31 04:15:04;;;;;;;;;5.00;4.00;;;;;20.19;49.85;101044.75;2043770;27;2754436;-77
2023/08/31 04:16:16;;;;;;;;;6.40;4.20;;;;;20.12;49.66;101044.34;2050693;28;2748224;-77
2023/08/31 04:17:30;;;;;;;;;6.50;5.33;;;;;20.07;49.97;101041.97;2051190;28;2741980;-77
2023/08/31 04:18:44;;;;;;;;;4.67;2.00;;;;;20.00;50.00;101046.00;2029056;27;2737769;-77
2023/08/31 04:19:54;;;;;;;;;3.00;3.00;;;;;19.95;50.14;101046.28;2006149;27;2751315;-77
2023/08/31 04:21:05;;;;;;;;;2.00;1.67;;;;;19.90;50.52;101048.44;2050823;27;2744142;-77
2023/08/31 04:22:17;;;;;;;;;7.00;4.33;;;;;19.82;50.27;101042.78;2033745;27;2754528;-77
2023/08/31 04:23:27;;;;;;;;;5.33;4.00;;;;;19.76;50.94;101050.22;2027304;27;2748221;-77
2023/08/31 04:24:38;;;;;;;;;4.00;4.00;;;;;19.74;50.85;101049.47;2051382;27;2749239;-77
2023/08/31 04:25:51;;;;;;;;;3.67;3.67;;;;;19.70;51.18;101042.66;2046677;27;2746189;-77
2023/08/31 04:27:04;;;;;;;;;5.33;4.33;;;;;19.70;51.27;101041.78;2052588;27;2744054;-77
2023/08/31 04:28:17;;;;;;;;;4.17;3.50;;;;;19.70;50.91;101040.00;2028926;27;2742981;-77
2023/08/31 04:29:31;;;;;;;;;4.17;4.00;;;;;19.72;51.24;101042.53;2029659;27;2736765;-76
2023/08/31 04:30:41;;;;;;;;;5.33;4.67;;;;;19.75;51.46;101040.53;2011075;27;2740894;-77
2023/08/31 04:31:52;;;;;;;;;3.00;3.00;;;;;19.82;51.20;101040.97;2050370;27;2736739;-76
2023/08/31 04:33:04;;;;;;;;;3.67;3.67;;;;;19.89;50.99;101039.59;2038013;27;2752445;-77
2023/08/31 04:34:17;;;;;;;;;2.17;2.00;;;;;19.97;51.14;101047.06;2053217;28;2739873;-77
2023/08/31 04:35:28;;;;;;;;;6.00;4.00;;;;;20.05;50.85;101043.03;2002040;27;2752493;-77
2023/08/31 04:36:39;;;;;;;;;5.67;5.00;;;;;20.09;50.45;101044.50;2034368;27;2748217;-76
2023/08/31 04:37:51;;;;;;;;;5.00;3.75;;;;;20.16;50.76;101045.81;2051948;27;2748189;-75
2023/08/31 04:39:04;;;;;;;;;3.33;3.33;;;;;20.20;50.64;101043.81;2059518;27;2740899;-75
2023/08/31 04:40:18;;;;;;;;;6.33;4.17;;;;;20.25;50.29;101055.00;2034167;27;2751351;-75
2023/08/31 04:41:28;;;;;;;;;3.00;3.00;;;;;20.26;50.01;101046.03;2010239;27;2751442;-75
2023/08/31 04:42:40;;;;;;;;;3.33;3.33;;;;;20.24;49.95;101053.31;2059545;27;2746102;-76
2023/08/31 04:43:50;;;;;;;;;5.00;4.00;;;;;20.20;50.18;101057.97;2035144;27;2748178;-75
2023/08/31 04:45:02;;;;;;;;;3.00;3.00;;;;;20.16;50.95;101055.63;2059288;27;2744103;-75
2023/08/31 04:46:12;;;;;;;;;6.67;4.00;;;;;20.09;50.45;101050.72;2011694;27;2751439;-75
2023/08/31 04:47:23;;;;;;;;;6.00;3.67;;;;;20.04;50.29;101058.16;2050729;27;2748189;-75
2023/08/31 04:48:34;;;;;;;;;4.00;3.00;;;;;20.00;50.38;101057.50;2059653;27;2745092;-75
2023/08/31 04:49:44;;;;;;;;;7.00;3.00;;;;;20.00;50.78;101057.50;2010843;27;2746175;-80
2023/08/31 04:50:57;;;;;;;;;5.00;4.00;;;;;20.01;51.06;101059.22;2059601;27;2750320;-80
2023/08/31 04:52:07;;;;;;;;;3.67;3.00;;;;;20.07;50.63;101059.78;2012311;27;2738375;-80
2023/08/31 04:53:18;;;;;;;;;3.67;3.67;;;;;20.12;50.69;101053.16;2047358;27;2750306;-80
2023/08/31 04:54:29;;;;;;;;;5.33;3.00;;;;;20.21;50.85;101059.69;2046310;27;2747136;-80
2023/08/31 04:55:40;;;;;;;;;4.00;3.00;;;;;20.29;50.84;101055.66;2048619;27;3453381;-79
2023/08/31 04:56:51;;;;;;;;;1.67;1.67;;;;;20.35;50.29;101056.06;2046550;27;2747132;-80
2023/08/31 04:58:02;;;;;;;;;3.00;3.00;;;;;20.41;50.14;101057.47;2046209;27;2752380;-80
2023/08/31 04:59:12;;;;;;;;;5.33;3.00;;;;;20.44;50.11;101061.72;2036667;28;2745073;-79
2023/08/31 05:00:23;;;;;;;;;4.00;4.00;;;;;20.44;50.10;101059.91;2038637;27;2754935;-79
2023/08/31 05:01:34;;;;;;;;;5.33;4.00;;;;;20.46;50.19;101060.66;2040343;27;2754435;-79
2023/08/31 05:02:45;;;;;;;;;4.33;4.00;;;;;20.52;50.45;101056.69;2045627;27;2754601;-79
2023/08/31 05:03:56;;;;;;;;;5.00;4.00;;;;;20.54;49.80;101056.59;2046303;27;2747160;-79
2023/08/31 05:05:07;;;;;;;;;4.00;3.33;;;;;20.56;50.10;101057.34;2037983;27;2741980;-79
2023/08/31 05:06:20;;;;;;;;;2.80;2.80;;;;;20.60;49.99;101056.16;2053427;27;2744039;-80
2023/08/31 05:07:30;;;;;;;;;3.33;3.33;;;;;20.64;49.76;101065.63;2010306;27;2743052;-79
2023/08/31 05:08:42;;;;;;;;;3.50;2.75;;;;;20.66;49.65;101066.41;2060328;27;2736748;-79
2023/08/31 05:09:52;;;;;;;;;3.67;3.67;;;;;20.65;49.78;101071.84;2028544;27;2746106;-79
2023/08/31 05:11:03;;;;;;;;;3.67;3.67;;;;;20.62;49.61;101067.56;2050120;27;2744027;-79
2023/08/31 05:12:17;;;;;;;;;3.50;3.50;;;;;20.57;49.26;101067.03;2061978;27;2729920;-79
2023/08/31 05:13:30;;;;;;;;;3.00;3.00;;;;;20.52;49.88;101066.53;2060412;27;2741955;-80
2023/08/31 05:14:41;;;;;;;;;4.00;4.00;;;;;20.42;49.60;101061.81;2011508;27;2750309;-80
2023/08/31 05:15:52;;;;;;;;;3.33;3.33;;;;;20.34;49.78;101065.06;2054148;27;2746136;-80
2023/08/31 05:17:05;;;;;;;;;5.67;3.50;;;;;20.29;50.27;101059.19;2030634;28;2732592;-80
2023/08/31 05:18:18;;;;;;;;;3.50;3.33;;;;;20.30;50.14;101060.88;2030341;27;2754447;-80
2023/08/31 05:19:31;;;;;;;;;4.83;4.00;;;;;20.33;50.61;101062.47;2029633;27;2747180;-79
2023/08/31 05:20:46;;;;;;;;;4.00;4.00;;;;;20.35;50.34;101065.88;2007492;27;2754486;-77
2023/08/31 05:21:56;;;;;;;;;5.67;4.00;;;;;20.38;50.11;101068.34;2030687;27;2754519;-76
2023/08/31 05:23:07;;;;;;;;;5.00;4.00;;;;;20.40;49.76;101061.06;2045651;27;2747152;-76
2023/08/31 05:24:18;;;;;;;;;8.00;4.33;;;;;20.40;49.95;101065.56;2046003;27;2748218;-76
2023/08/31 05:25:29;;;;;;;;;5.33;3.00;;;;;20.36;49.98;101062.25;2035810;27;3464297;-76
2023/08/31 05:26:40;;;;;;;;;6.67;3.00;;;;;20.33;49.73;101067.81;2044130;27;2750274;-76
2023/08/31 05:27:51;;;;;;;;;5.33;3.33;;;;;20.32;50.32;101071.47;2060678;27;2737821;-76
2023/08/31 05:29:05;;;;;;;;;6.50;2.00;;;;;20.30;50.32;101063.53;2031585;27;2733624;-75
2023/08/31 05:30:18;;;;;;;;;2.83;2.83;;;;;20.28;49.88;101069.94;2037101;27;2753409;-74